sensor_id;sensor_type;location;lat;lon;timestamp;P1;durP1;ratioP1;P2;durP2;ratioP2
19675;SDS011;39539;52.202;9.876;2022-09-01T00:01:29;2.35;;;1.25;;
19675;SDS011;39539;52.202;9.876;2022-09-01T00:04:11;1.30;;;1.20;;
19675;SDS011;39539;52.202;9.876;2022-09-01T00:06:43;1.95;;;1.40;;
19675;SDS011;39539;52.202;9.876;2022-09-01T00:09:12;1.33;;;1.27;;
19675;SDS011;39539;52.202;9.876;2022-09-01T00:11:51;2.25;;;1.30;;
19675;SDS011;39539;52.202;9.876;2022-09-01T00:14:20;1.25;;;1.10;;
19675;SDS011;39539;52.202;9.876;2022-09-01T00:16:48;1.33;;;1.23;;
19675;SDS011;39539;52.202;9.876;2022-09-01T00:19:20;1.60;;;1.20;;
19675;SDS011;39539;52.202;9.876;2022-09-01T00:21:47;1.48;;;1.23;;
19675;SDS011;39539;52.202;9.876;2022-09-01T00:24:19;1.63;;;1.52;;
19675;SDS011;39539;52.202;9.876;2022-09-01T00:26:57;1.63;;;1.52;;
19675;SDS011;39539;52.202;9.876;2022-09-01T00:29:25;1.33;;;1.20;;
19675;SDS011;39539;52.202;9.876;2022-09-01T00:31:52;2.92;;;1.52;;
19675;SDS011;39539;52.202;9.876;2022-09-01T00:34:19;1.50;;;1.30;;
19675;SDS011;39539;52.202;9.876;2022-09-01T00:36:51;2.63;;;1.30;;
19675;SDS011;39539;52.202;9.876;2022-09-01T00:39:25;1.90;;;1.20;;
19675;SDS011;39539;52.202;9.876;2022-09-01T00:42:09;1.33;;;1.23;;
19675;SDS011;39539;52.202;9.876;2022-09-01T00:44:35;1.30;;;1.20;;
19675;SDS011;39539;52.202;9.876;2022-09-01T00:47:14;1.35;;;1.25;;
19675;SDS011;39539;52.202;9.876;2022-09-01T00:49:47;1.25;;;1.20;;
19675;SDS011;39539;52.202;9.876;2022-09-01T00:52:31;1.85;;;1.23;;
19675;SDS011;39539;52.202;9.876;2022-09-01T00:55:03;1.17;;;1.08;;
19675;SDS011;39539;52.202;9.876;2022-09-01T00:57:37;2.65;;;1.20;;
19675;SDS011;39539;52.202;9.876;2022-09-01T01:05:33;1.45;;;1.05;;
19675;SDS011;39539;52.202;9.876;2022-09-01T01:11:04;1.70;;;1.40;;
19675;SDS011;39539;52.202;9.876;2022-09-01T01:13:35;3.05;;;1.30;;
19675;SDS011;39539;52.202;9.876;2022-09-01T01:16:13;2.08;;;1.30;;
19675;SDS011;39539;52.202;9.876;2022-09-01T01:18:45;1.00;;;1.00;;
19675;SDS011;39539;52.202;9.876;2022-09-01T01:21:20;1.27;;;1.17;;
19675;SDS011;39539;52.202;9.876;2022-09-01T01:26:52;3.17;;;1.10;;
19675;SDS011;39539;52.202;9.876;2022-09-01T01:29:23;2.17;;;1.27;;
19675;SDS011;39539;52.202;9.876;2022-09-01T01:32:11;1.42;;;1.33;;
19675;SDS011;39539;52.202;9.876;2022-09-01T01:34:38;1.13;;;1.08;;
19675;SDS011;39539;52.202;9.876;2022-09-01T01:37:08;1.17;;;1.02;;
19675;SDS011;39539;52.202;9.876;2022-09-01T01:39:38;1.48;;;1.38;;
19675;SDS011;39539;52.202;9.876;2022-09-01T01:42:12;1.13;;;1.13;;
19675;SDS011;39539;52.202;9.876;2022-09-01T01:44:39;1.40;;;1.30;;
19675;SDS011;39539;52.202;9.876;2022-09-01T01:47:06;1.85;;;1.40;;
19675;SDS011;39539;52.202;9.876;2022-09-01T01:49:52;1.70;;;1.15;;
19675;SDS011;39539;52.202;9.876;2022-09-01T01:52:21;1.60;;;1.50;;
19675;SDS011;39539;52.202;9.876;2022-09-01T01:54:48;1.85;;;1.40;;
19675;SDS011;39539;52.202;9.876;2022-09-01T01:57:14;1.85;;;1.60;;
19675;SDS011;39539;52.202;9.876;2022-09-01T01:59:43;2.08;;;1.73;;
19675;SDS011;39539;52.202;9.876;2022-09-01T02:02:08;1.60;;;1.50;;
19675;SDS011;39539;52.202;9.876;2022-09-01T02:04:36;1.55;;;1.40;;
19675;SDS011;39539;52.202;9.876;2022-09-01T02:07:07;1.90;;;1.75;;
19675;SDS011;39539;52.202;9.876;2022-09-01T02:09:36;1.70;;;1.60;;
19675;SDS011;39539;52.202;9.876;2022-09-01T02:12:18;1.75;;;1.65;;
19675;SDS011;39539;52.202;9.876;2022-09-01T02:14:43;3.78;;;2.00;;
19675;SDS011;39539;52.202;9.876;2022-09-01T02:17:10;2.17;;;1.90;;
19675;SDS011;39539;52.202;9.876;2022-09-01T02:19:35;2.35;;;1.88;;
19675;SDS011;39539;52.202;9.876;2022-09-01T02:22:06;1.73;;;1.63;;
19675;SDS011;39539;52.202;9.876;2022-09-01T02:27:40;2.63;;;1.80;;
19675;SDS011;39539;52.202;9.876;2022-09-01T02:30:21;4.72;;;1.60;;
19675;SDS011;39539;52.202;9.876;2022-09-01T02:32:55;1.80;;;1.70;;
19675;SDS011;39539;52.202;9.876;2022-09-01T02:38:07;1.80;;;1.70;;
19675;SDS011;39539;52.202;9.876;2022-09-01T02:40:32;1.90;;;1.80;;
19675;SDS011;39539;52.202;9.876;2022-09-01T02:42:58;2.92;;;2.20;;
19675;SDS011;39539;52.202;9.876;2022-09-01T02:45:33;2.10;;;2.00;;
19675;SDS011;39539;52.202;9.876;2022-09-01T02:47:59;2.17;;;2.05;;
19675;SDS011;39539;52.202;9.876;2022-09-01T02:50:24;2.45;;;2.10;;
19675;SDS011;39539;52.202;9.876;2022-09-01T02:52:54;2.90;;;2.20;;
19675;SDS011;39539;52.202;9.876;2022-09-01T02:55:19;2.17;;;1.98;;
19675;SDS011;39539;52.202;9.876;2022-09-01T02:57:50;2.10;;;2.00;;
19675;SDS011;39539;52.202;9.876;2022-09-01T03:00:19;2.38;;;2.28;;
19675;SDS011;39539;52.202;9.876;2022-09-01T03:02:53;2.35;;;1.90;;
19675;SDS011;39539;52.202;9.876;2022-09-01T03:05:30;2.85;;;2.33;;
19675;SDS011;39539;52.202;9.876;2022-09-01T03:07:57;2.72;;;2.35;;
19675;SDS011;39539;52.202;9.876;2022-09-01T03:10:30;2.28;;;2.17;;
19675;SDS011;39539;52.202;9.876;2022-09-01T03:13:03;2.50;;;2.40;;
19675;SDS011;39539;52.202;9.876;2022-09-01T03:15:31;2.28;;;2.08;;
19675;SDS011;39539;52.202;9.876;2022-09-01T03:18:10;2.45;;;2.28;;
19675;SDS011;39539;52.202;9.876;2022-09-01T03:20:38;2.22;;;2.13;;
19675;SDS011;39539;52.202;9.876;2022-09-01T03:23:07;3.42;;;2.63;;
19675;SDS011;39539;52.202;9.876;2022-09-01T03:25:37;2.83;;;2.50;;
19675;SDS011;39539;52.202;9.876;2022-09-01T03:28:03;2.40;;;2.30;;
19675;SDS011;39539;52.202;9.876;2022-09-01T03:30:29;2.80;;;2.60;;
19675;SDS011;39539;52.202;9.876;2022-09-01T03:32:58;2.65;;;2.55;;
19675;SDS011;39539;52.202;9.876;2022-09-01T03:35:25;2.78;;;2.58;;
19675;SDS011;39539;52.202;9.876;2022-09-01T03:37:52;3.38;;;2.33;;
19675;SDS011;39539;52.202;9.876;2022-09-01T03:40:25;2.20;;;2.10;;
19675;SDS011;39539;52.202;9.876;2022-09-01T03:43:02;2.15;;;2.05;;
19675;SDS011;39539;52.202;9.876;2022-09-01T03:45:35;2.22;;;2.03;;
19675;SDS011;39539;52.202;9.876;2022-09-01T03:48:07;2.03;;;1.92;;
19675;SDS011;39539;52.202;9.876;2022-09-01T03:50:41;1.90;;;1.80;;
19675;SDS011;39539;52.202;9.876;2022-09-01T03:53:09;2.00;;;1.90;;
19675;SDS011;39539;52.202;9.876;2022-09-01T03:55:38;2.22;;;2.13;;
19675;SDS011;39539;52.202;9.876;2022-09-01T03:58:05;2.20;;;2.00;;
19675;SDS011;39539;52.202;9.876;2022-09-01T04:00:40;2.50;;;2.30;;
19675;SDS011;39539;52.202;9.876;2022-09-01T04:03:23;2.50;;;2.30;;
19675;SDS011;39539;52.202;9.876;2022-09-01T04:05:50;2.90;;;2.67;;
19675;SDS011;39539;52.202;9.876;2022-09-01T04:08:19;3.20;;;3.00;;
19675;SDS011;39539;52.202;9.876;2022-09-01T04:10:48;3.80;;;2.70;;
19675;SDS011;39539;52.202;9.876;2022-09-01T04:13:28;3.50;;;3.20;;
19675;SDS011;39539;52.202;9.876;2022-09-01T04:15:59;3.35;;;3.10;;
19675;SDS011;39539;52.202;9.876;2022-09-01T04:18:25;3.05;;;2.85;;
19675;SDS011;39539;52.202;9.876;2022-09-01T04:20:52;3.50;;;3.20;;
19675;SDS011;39539;52.202;9.876;2022-09-01T04:23:32;3.67;;;3.38;;
19675;SDS011;39539;52.202;9.876;2022-09-01T04:26:00;3.58;;;3.28;;
19675;SDS011;39539;52.202;9.876;2022-09-01T04:28:35;3.63;;;3.35;;
19675;SDS011;39539;52.202;9.876;2022-09-01T04:31:07;4.10;;;3.72;;
19675;SDS011;39539;52.202;9.876;2022-09-01T04:33:42;7.32;;;3.40;;
19675;SDS011;39539;52.202;9.876;2022-09-01T04:36:24;4.85;;;3.35;;
19675;SDS011;39539;52.202;9.876;2022-09-01T04:38:55;3.03;;;2.83;;
19675;SDS011;39539;52.202;9.876;2022-09-01T04:41:23;4.18;;;3.10;;
19675;SDS011;39539;52.202;9.876;2022-09-01T04:43:52;3.67;;;3.30;;
19675;SDS011;39539;52.202;9.876;2022-09-01T04:46:21;13.52;;;3.85;;
19675;SDS011;39539;52.202;9.876;2022-09-01T04:48:47;34.13;;;7.22;;
19675;SDS011;39539;52.202;9.876;2022-09-01T04:51:16;5.13;;;3.90;;
19675;SDS011;39539;52.202;9.876;2022-09-01T04:53:41;4.07;;;3.20;;
19675;SDS011;39539;52.202;9.876;2022-09-01T04:56:12;3.60;;;3.30;;
19675;SDS011;39539;52.202;9.876;2022-09-01T04:58:43;3.17;;;2.88;;
19675;SDS011;39539;52.202;9.876;2022-09-01T05:01:21;3.10;;;2.72;;
19675;SDS011;39539;52.202;9.876;2022-09-01T05:04:02;2.78;;;2.40;;
19675;SDS011;39539;52.202;9.876;2022-09-01T05:06:29;2.88;;;2.60;;
19675;SDS011;39539;52.202;9.876;2022-09-01T05:08:57;4.50;;;4.15;;
19675;SDS011;39539;52.202;9.876;2022-09-01T05:11:25;5.28;;;3.15;;
19675;SDS011;39539;52.202;9.876;2022-09-01T05:13:51;2.85;;;2.65;;
19675;SDS011;39539;52.202;9.876;2022-09-01T05:16:21;3.42;;;2.83;;
19675;SDS011;39539;52.202;9.876;2022-09-01T05:18:51;2.88;;;2.75;;
19675;SDS011;39539;52.202;9.876;2022-09-01T05:21:18;3.70;;;3.00;;
19675;SDS011;39539;52.202;9.876;2022-09-01T05:23:49;3.45;;;3.17;;
19675;SDS011;39539;52.202;9.876;2022-09-01T05:26:17;4.53;;;3.20;;
19675;SDS011;39539;52.202;9.876;2022-09-01T05:28:48;3.30;;;3.10;;
19675;SDS011;39539;52.202;9.876;2022-09-01T05:31:27;32.78;;;7.18;;
19675;SDS011;39539;52.202;9.876;2022-09-01T05:33:59;44.30;;;7.35;;
19675;SDS011;39539;52.202;9.876;2022-09-01T05:36:26;14.55;;;4.85;;
19675;SDS011;39539;52.202;9.876;2022-09-01T05:38:57;6.22;;;3.70;;
19675;SDS011;39539;52.202;9.876;2022-09-01T05:41:23;4.38;;;3.85;;
19675;SDS011;39539;52.202;9.876;2022-09-01T05:43:51;3.45;;;3.25;;
19675;SDS011;39539;52.202;9.876;2022-09-01T05:46:34;3.25;;;3.05;;
19675;SDS011;39539;52.202;9.876;2022-09-01T05:49:03;3.50;;;3.20;;
19675;SDS011;39539;52.202;9.876;2022-09-01T05:51:31;3.40;;;3.20;;
19675;SDS011;39539;52.202;9.876;2022-09-01T05:54:04;3.45;;;3.25;;
19675;SDS011;39539;52.202;9.876;2022-09-01T05:56:37;3.75;;;3.45;;
19675;SDS011;39539;52.202;9.876;2022-09-01T05:59:14;4.20;;;3.83;;
19675;SDS011;39539;52.202;9.876;2022-09-01T06:01:46;3.80;;;3.40;;
19675;SDS011;39539;52.202;9.876;2022-09-01T06:04:13;2.95;;;2.75;;
19675;SDS011;39539;52.202;9.876;2022-09-01T06:06:40;2.50;;;2.30;;
19675;SDS011;39539;52.202;9.876;2022-09-01T06:09:14;3.13;;;2.17;;
19675;SDS011;39539;52.202;9.876;2022-09-01T06:11:53;1.88;;;1.77;;
19675;SDS011;39539;52.202;9.876;2022-09-01T06:14:20;1.67;;;1.58;;
19675;SDS011;39539;52.202;9.876;2022-09-01T06:16:48;1.70;;;1.60;;
19675;SDS011;39539;52.202;9.876;2022-09-01T06:19:15;2.53;;;1.73;;
19675;SDS011;39539;52.202;9.876;2022-09-01T06:21:47;4.20;;;1.65;;
19675;SDS011;39539;52.202;9.876;2022-09-01T06:24:16;2.35;;;1.50;;
19675;SDS011;39539;52.202;9.876;2022-09-01T06:26:42;7.20;;;1.65;;
19675;SDS011;39539;52.202;9.876;2022-09-01T06:29:10;1.52;;;1.30;;
19675;SDS011;39539;52.202;9.876;2022-09-01T06:31:42;1.58;;;1.48;;
19675;SDS011;39539;52.202;9.876;2022-09-01T06:34:10;1.95;;;1.27;;
19675;SDS011;39539;52.202;9.876;2022-09-01T06:36:43;11.93;;;2.38;;
19675;SDS011;39539;52.202;9.876;2022-09-01T06:39:26;1.80;;;1.42;;
19675;SDS011;39539;52.202;9.876;2022-09-01T06:41:52;2.10;;;1.25;;
19675;SDS011;39539;52.202;9.876;2022-09-01T06:44:20;1.42;;;1.10;;
19675;SDS011;39539;52.202;9.876;2022-09-01T06:46:49;2.42;;;1.20;;
19675;SDS011;39539;52.202;9.876;2022-09-01T06:49:21;3.80;;;1.40;;
19675;SDS011;39539;52.202;9.876;2022-09-01T06:52:05;1.40;;;1.23;;
19675;SDS011;39539;52.202;9.876;2022-09-01T06:54:50;1.30;;;1.13;;
19675;SDS011;39539;52.202;9.876;2022-09-01T06:57:18;2.63;;;1.20;;
19675;SDS011;39539;52.202;9.876;2022-09-01T07:00:01;1.30;;;1.10;;
19675;SDS011;39539;52.202;9.876;2022-09-01T07:02:40;1.30;;;1.20;;
19675;SDS011;39539;52.202;9.876;2022-09-01T07:05:07;2.45;;;1.38;;
19675;SDS011;39539;52.202;9.876;2022-09-01T07:07:39;1.60;;;1.30;;
19675;SDS011;39539;52.202;9.876;2022-09-01T07:10:08;1.30;;;1.20;;
19675;SDS011;39539;52.202;9.876;2022-09-01T07:12:46;2.10;;;1.40;;
19675;SDS011;39539;52.202;9.876;2022-09-01T07:18:20;1.27;;;1.00;;
19675;SDS011;39539;52.202;9.876;2022-09-01T07:20:55;2.17;;;1.00;;
19675;SDS011;39539;52.202;9.876;2022-09-01T07:29:16;1.48;;;1.00;;
19675;SDS011;39539;52.202;9.876;2022-09-01T07:31:46;2.10;;;1.35;;
19675;SDS011;39539;52.202;9.876;2022-09-01T07:34:12;1.60;;;1.20;;
19675;SDS011;39539;52.202;9.876;2022-09-01T07:36:46;1.15;;;0.90;;
19675;SDS011;39539;52.202;9.876;2022-09-01T07:39:13;1.00;;;0.80;;
19675;SDS011;39539;52.202;9.876;2022-09-01T07:41:39;0.95;;;0.88;;
19675;SDS011;39539;52.202;9.876;2022-09-01T07:44:06;24.25;;;3.17;;
19675;SDS011;39539;52.202;9.876;2022-09-01T07:46:40;1.40;;;0.98;;
19675;SDS011;39539;52.202;9.876;2022-09-01T07:49:07;1.85;;;1.15;;
19675;SDS011;39539;52.202;9.876;2022-09-01T07:51:43;1.15;;;0.80;;
19675;SDS011;39539;52.202;9.876;2022-09-01T07:54:09;1.23;;;0.85;;
19675;SDS011;39539;52.202;9.876;2022-09-01T07:56:40;0.80;;;0.80;;
19675;SDS011;39539;52.202;9.876;2022-09-01T07:59:06;0.85;;;0.85;;
19675;SDS011;39539;52.202;9.876;2022-09-01T08:01:42;0.85;;;0.73;;
19675;SDS011;39539;52.202;9.876;2022-09-01T08:04:09;27.48;;;3.42;;
19675;SDS011;39539;52.202;9.876;2022-09-01T08:06:36;1.02;;;0.75;;
19675;SDS011;39539;52.202;9.876;2022-09-01T08:09:04;3.70;;;0.98;;
19675;SDS011;39539;52.202;9.876;2022-09-01T08:11:31;1.85;;;0.95;;
19675;SDS011;39539;52.202;9.876;2022-09-01T08:14:09;0.60;;;0.55;;
19675;SDS011;39539;52.202;9.876;2022-09-01T08:16:35;0.82;;;0.70;;
19675;SDS011;39539;52.202;9.876;2022-09-01T08:19:00;1.58;;;0.65;;
19675;SDS011;39539;52.202;9.876;2022-09-01T08:21:26;2.58;;;0.75;;
19675;SDS011;39539;52.202;9.876;2022-09-01T08:23:52;0.82;;;0.77;;
19675;SDS011;39539;52.202;9.876;2022-09-01T08:26:20;1.35;;;0.70;;
19675;SDS011;39539;52.202;9.876;2022-09-01T08:28:50;0.85;;;0.45;;
19675;SDS011;39539;52.202;9.876;2022-09-01T08:31:17;2.40;;;0.90;;
19675;SDS011;39539;52.202;9.876;2022-09-01T08:33:44;2.03;;;1.13;;
19675;SDS011;39539;52.202;9.876;2022-09-01T08:36:12;2.45;;;0.75;;
19675;SDS011;39539;52.202;9.876;2022-09-01T08:38:40;2.53;;;0.90;;
19675;SDS011;39539;52.202;9.876;2022-09-01T08:41:17;0.93;;;0.70;;
19675;SDS011;39539;52.202;9.876;2022-09-01T08:44:15;0.98;;;0.80;;
19675;SDS011;39539;52.202;9.876;2022-09-01T08:46:43;1.58;;;0.75;;
19675;SDS011;39539;52.202;9.876;2022-09-01T08:49:17;2.75;;;0.80;;
19675;SDS011;39539;52.202;9.876;2022-09-01T08:57:18;2.17;;;0.90;;
19675;SDS011;39539;52.202;9.876;2022-09-01T08:59:54;1.15;;;0.80;;
19675;SDS011;39539;52.202;9.876;2022-09-01T09:17:55;1.63;;;0.60;;
19675;SDS011;39539;52.202;9.876;2022-09-01T09:20:31;1.50;;;0.90;;
19675;SDS011;39539;52.202;9.876;2022-09-01T09:22:56;3.13;;;0.90;;
19675;SDS011;39539;52.202;9.876;2022-09-01T09:25:31;1.17;;;0.85;;
19675;SDS011;39539;52.202;9.876;2022-09-01T09:27:56;0.70;;;0.70;;
19675;SDS011;39539;52.202;9.876;2022-09-01T09:30:25;2.60;;;0.60;;
19675;SDS011;39539;52.202;9.876;2022-09-01T09:33:00;1.63;;;0.60;;
19675;SDS011;39539;52.202;9.876;2022-09-01T09:35:42;1.60;;;0.70;;
19675;SDS011;39539;52.202;9.876;2022-09-01T09:40:58;3.17;;;0.70;;
19675;SDS011;39539;52.202;9.876;2022-09-01T09:43:31;1.33;;;0.50;;
19675;SDS011;39539;52.202;9.876;2022-09-01T09:48:48;0.80;;;0.73;;
19675;SDS011;39539;52.202;9.876;2022-09-01T09:51:34;1.75;;;0.70;;
19675;SDS011;39539;52.202;9.876;2022-09-01T09:56:48;0.60;;;0.40;;
19675;SDS011;39539;52.202;9.876;2022-09-01T10:02:15;2.15;;;0.50;;
19675;SDS011;39539;52.202;9.876;2022-09-01T10:04:51;0.88;;;0.45;;
19675;SDS011;39539;52.202;9.876;2022-09-01T10:12:57;0.90;;;0.50;;
19675;SDS011;39539;52.202;9.876;2022-09-01T10:15:25;1.23;;;0.60;;
19675;SDS011;39539;52.202;9.876;2022-09-01T10:17:54;0.98;;;0.32;;
19675;SDS011;39539;52.202;9.876;2022-09-01T10:20:25;1.15;;;0.52;;
19675;SDS011;39539;52.202;9.876;2022-09-01T10:22:52;6.88;;;0.85;;
19675;SDS011;39539;52.202;9.876;2022-09-01T10:25:19;1.13;;;0.40;;
19675;SDS011;39539;52.202;9.876;2022-09-01T10:28:01;1.83;;;0.52;;
19675;SDS011;39539;52.202;9.876;2022-09-01T10:30:35;1.98;;;0.50;;
19675;SDS011;39539;52.202;9.876;2022-09-01T10:33:06;0.57;;;0.43;;
19675;SDS011;39539;52.202;9.876;2022-09-01T10:35:42;0.60;;;0.60;;
19675;SDS011;39539;52.202;9.876;2022-09-01T10:38:27;2.85;;;0.52;;
19675;SDS011;39539;52.202;9.876;2022-09-01T10:40:56;0.82;;;0.40;;
19675;SDS011;39539;52.202;9.876;2022-09-01T10:46:08;0.77;;;0.35;;
19675;SDS011;39539;52.202;9.876;2022-09-01T10:48:51;5.95;;;0.77;;
19675;SDS011;39539;52.202;9.876;2022-09-01T10:53:48;0.45;;;0.45;;
19675;SDS011;39539;52.202;9.876;2022-09-01T11:04:23;0.77;;;0.30;;
19675;SDS011;39539;52.202;9.876;2022-09-01T11:15:42;2.60;;;0.60;;
19675;SDS011;39539;52.202;9.876;2022-09-01T11:18:28;0.95;;;0.40;;
19675;SDS011;39539;52.202;9.876;2022-09-01T11:30:21;1.42;;;0.47;;
19675;SDS011;39539;52.202;9.876;2022-09-01T11:44:54;2.42;;;0.50;;
19675;SDS011;39539;52.202;9.876;2022-09-01T11:47:27;2.58;;;0.50;;
19675;SDS011;39539;52.202;9.876;2022-09-01T11:50:08;2.95;;;0.60;;
19675;SDS011;39539;52.202;9.876;2022-09-01T11:53:19;0.40;;;0.40;;
19675;SDS011;39539;52.202;9.876;2022-09-01T11:55:45;3.05;;;0.40;;
19675;SDS011;39539;52.202;9.876;2022-09-01T12:03:55;0.90;;;0.50;;
19675;SDS011;39539;52.202;9.876;2022-09-01T12:06:26;0.98;;;0.47;;
19675;SDS011;39539;52.202;9.876;2022-09-01T12:12:00;6.78;;;0.80;;
19675;SDS011;39539;52.202;9.876;2022-09-01T12:14:27;0.52;;;0.43;;
19675;SDS011;39539;52.202;9.876;2022-09-01T12:16:55;0.55;;;0.50;;
19675;SDS011;39539;52.202;9.876;2022-09-01T12:19:41;1.13;;;0.40;;
19675;SDS011;39539;52.202;9.876;2022-09-01T12:22:14;0.28;;;0.28;;
19675;SDS011;39539;52.202;9.876;2022-09-01T12:25:03;0.45;;;0.40;;
19675;SDS011;39539;52.202;9.876;2022-09-01T12:27:42;0.80;;;0.50;;
19675;SDS011;39539;52.202;9.876;2022-09-01T12:30:09;0.43;;;0.40;;
19675;SDS011;39539;52.202;9.876;2022-09-01T12:32:38;0.40;;;0.40;;
19675;SDS011;39539;52.202;9.876;2022-09-01T12:35:20;0.30;;;0.30;;
19675;SDS011;39539;52.202;9.876;2022-09-01T12:37:50;0.77;;;0.38;;
19675;SDS011;39539;52.202;9.876;2022-09-01T12:40:33;0.47;;;0.47;;
19675;SDS011;39539;52.202;9.876;2022-09-01T12:42:59;0.57;;;0.40;;
19675;SDS011;39539;52.202;9.876;2022-09-01T12:50:59;0.52;;;0.40;;
19675;SDS011;39539;52.202;9.876;2022-09-01T12:53:30;1.77;;;0.50;;
19675;SDS011;39539;52.202;9.876;2022-09-01T12:56:19;0.50;;;0.50;;
19675;SDS011;39539;52.202;9.876;2022-09-01T12:58:51;1.20;;;0.40;;
19675;SDS011;39539;52.202;9.876;2022-09-01T13:01:38;2.03;;;0.50;;
19675;SDS011;39539;52.202;9.876;2022-09-01T13:07:06;0.43;;;0.38;;
19675;SDS011;39539;52.202;9.876;2022-09-01T13:09:32;0.40;;;0.40;;
19675;SDS011;39539;52.202;9.876;2022-09-01T13:12:18;0.30;;;0.30;;
19675;SDS011;39539;52.202;9.876;2022-09-01T13:14:45;0.68;;;0.40;;
19675;SDS011;39539;52.202;9.876;2022-09-01T13:17:14;3.83;;;0.80;;
19675;SDS011;39539;52.202;9.876;2022-09-01T13:19:46;0.40;;;0.40;;
19675;SDS011;39539;52.202;9.876;2022-09-01T13:22:13;0.55;;;0.50;;
19675;SDS011;39539;52.202;9.876;2022-09-01T13:24:39;0.82;;;0.40;;
19675;SDS011;39539;52.202;9.876;2022-09-01T13:27:05;1.88;;;0.43;;
19675;SDS011;39539;52.202;9.876;2022-09-01T13:29:33;1.05;;;0.40;;
19675;SDS011;39539;52.202;9.876;2022-09-01T13:32:00;0.63;;;0.40;;
19675;SDS011;39539;52.202;9.876;2022-09-01T13:34:28;0.35;;;0.30;;
19675;SDS011;39539;52.202;9.876;2022-09-01T13:36:57;0.73;;;0.40;;
19675;SDS011;39539;52.202;9.876;2022-09-01T13:39:38;0.35;;;0.35;;
19675;SDS011;39539;52.202;9.876;2022-09-01T13:42:05;1.65;;;0.52;;
19675;SDS011;39539;52.202;9.876;2022-09-01T13:44:31;0.52;;;0.40;;
19675;SDS011;39539;52.202;9.876;2022-09-01T13:47:02;0.88;;;0.43;;
19675;SDS011;39539;52.202;9.876;2022-09-01T13:49:33;2.33;;;0.60;;
19675;SDS011;39539;52.202;9.876;2022-09-01T13:52:00;2.03;;;0.45;;
19675;SDS011;39539;52.202;9.876;2022-09-01T13:54:29;1.00;;;0.52;;
19675;SDS011;39539;52.202;9.876;2022-09-01T13:57:13;2.42;;;0.60;;
19675;SDS011;39539;52.202;9.876;2022-09-01T13:59:43;0.40;;;0.40;;
19675;SDS011;39539;52.202;9.876;2022-09-01T14:02:24;1.55;;;0.32;;
19675;SDS011;39539;52.202;9.876;2022-09-01T14:04:59;0.30;;;0.30;;
19675;SDS011;39539;52.202;9.876;2022-09-01T14:07:37;0.40;;;0.40;;
19675;SDS011;39539;52.202;9.876;2022-09-01T14:10:03;1.95;;;0.60;;
19675;SDS011;39539;52.202;9.876;2022-09-01T14:12:38;1.10;;;0.30;;
19675;SDS011;39539;52.202;9.876;2022-09-01T14:15:12;0.55;;;0.40;;
19675;SDS011;39539;52.202;9.876;2022-09-01T14:17:41;0.45;;;0.45;;
19675;SDS011;39539;52.202;9.876;2022-09-01T14:20:18;0.50;;;0.45;;
19675;SDS011;39539;52.202;9.876;2022-09-01T14:22:50;0.88;;;0.60;;
19675;SDS011;39539;52.202;9.876;2022-09-01T14:25:17;0.47;;;0.35;;
19675;SDS011;39539;52.202;9.876;2022-09-01T14:27:44;1.25;;;0.40;;
19675;SDS011;39539;52.202;9.876;2022-09-01T14:30:14;1.80;;;0.50;;
19675;SDS011;39539;52.202;9.876;2022-09-01T14:32:42;0.45;;;0.40;;
19675;SDS011;39539;52.202;9.876;2022-09-01T14:35:08;0.60;;;0.30;;
19675;SDS011;39539;52.202;9.876;2022-09-01T14:37:36;0.98;;;0.45;;
19675;SDS011;39539;52.202;9.876;2022-09-01T14:40:02;1.85;;;0.45;;
19675;SDS011;39539;52.202;9.876;2022-09-01T14:42:29;0.50;;;0.50;;
19675;SDS011;39539;52.202;9.876;2022-09-01T14:44:55;0.50;;;0.30;;
19675;SDS011;39539;52.202;9.876;2022-09-01T14:47:21;0.52;;;0.45;;
19675;SDS011;39539;52.202;9.876;2022-09-01T14:49:50;0.40;;;0.40;;
19675;SDS011;39539;52.202;9.876;2022-09-01T14:52:17;0.57;;;0.43;;
19675;SDS011;39539;52.202;9.876;2022-09-01T14:54:44;1.42;;;0.40;;
19675;SDS011;39539;52.202;9.876;2022-09-01T14:57:10;0.50;;;0.45;;
19675;SDS011;39539;52.202;9.876;2022-09-01T14:59:43;2.17;;;0.40;;
19675;SDS011;39539;52.202;9.876;2022-09-01T15:02:15;0.50;;;0.50;;
19675;SDS011;39539;52.202;9.876;2022-09-01T15:04:40;1.45;;;0.40;;
19675;SDS011;39539;52.202;9.876;2022-09-01T15:07:06;0.68;;;0.30;;
19675;SDS011;39539;52.202;9.876;2022-09-01T15:09:32;1.58;;;0.38;;
19675;SDS011;39539;52.202;9.876;2022-09-01T15:12:14;0.85;;;0.50;;
19675;SDS011;39539;52.202;9.876;2022-09-01T15:14:39;0.32;;;0.32;;
19675;SDS011;39539;52.202;9.876;2022-09-01T15:17:05;0.63;;;0.40;;
19675;SDS011;39539;52.202;9.876;2022-09-01T15:19:34;0.40;;;0.40;;
19675;SDS011;39539;52.202;9.876;2022-09-01T15:22:11;0.70;;;0.40;;
19675;SDS011;39539;52.202;9.876;2022-09-01T15:24:41;1.55;;;0.40;;
19675;SDS011;39539;52.202;9.876;2022-09-01T15:27:10;1.27;;;0.40;;
19675;SDS011;39539;52.202;9.876;2022-09-01T15:29:37;0.40;;;0.40;;
19675;SDS011;39539;52.202;9.876;2022-09-01T15:32:13;0.30;;;0.30;;
19675;SDS011;39539;52.202;9.876;2022-09-01T15:34:41;0.95;;;0.40;;
19675;SDS011;39539;52.202;9.876;2022-09-01T15:37:09;1.20;;;0.50;;
19675;SDS011;39539;52.202;9.876;2022-09-01T15:39:35;1.70;;;0.50;;
19675;SDS011;39539;52.202;9.876;2022-09-01T15:42:02;1.00;;;0.40;;
19675;SDS011;39539;52.202;9.876;2022-09-01T15:44:27;4.50;;;0.60;;
19675;SDS011;39539;52.202;9.876;2022-09-01T15:46:57;0.32;;;0.32;;
19675;SDS011;39539;52.202;9.876;2022-09-01T15:49:29;0.73;;;0.40;;
19675;SDS011;39539;52.202;9.876;2022-09-01T15:51:56;0.82;;;0.40;;
19675;SDS011;39539;52.202;9.876;2022-09-01T15:54:31;0.60;;;0.43;;
19675;SDS011;39539;52.202;9.876;2022-09-01T15:57:05;0.65;;;0.38;;
19675;SDS011;39539;52.202;9.876;2022-09-01T15:59:30;0.77;;;0.43;;
19675;SDS011;39539;52.202;9.876;2022-09-01T16:01:57;1.40;;;0.38;;
19675;SDS011;39539;52.202;9.876;2022-09-01T16:04:26;0.85;;;0.50;;
19675;SDS011;39539;52.202;9.876;2022-09-01T16:06:52;1.55;;;0.40;;
19675;SDS011;39539;52.202;9.876;2022-09-01T16:09:19;1.70;;;0.52;;
19675;SDS011;39539;52.202;9.876;2022-09-01T16:11:46;0.32;;;0.32;;
19675;SDS011;39539;52.202;9.876;2022-09-01T16:14:12;2.55;;;0.45;;
19675;SDS011;39539;52.202;9.876;2022-09-01T16:19:55;1.77;;;0.38;;
19675;SDS011;39539;52.202;9.876;2022-09-01T16:22:36;0.80;;;0.40;;
19675;SDS011;39539;52.202;9.876;2022-09-01T16:25:14;0.75;;;0.55;;
19675;SDS011;39539;52.202;9.876;2022-09-01T16:27:44;0.57;;;0.40;;
19675;SDS011;39539;52.202;9.876;2022-09-01T16:30:24;1.63;;;0.50;;
19675;SDS011;39539;52.202;9.876;2022-09-01T16:33:02;1.50;;;0.50;;
19675;SDS011;39539;52.202;9.876;2022-09-01T16:35:33;0.95;;;0.40;;
19675;SDS011;39539;52.202;9.876;2022-09-01T16:40:51;2.65;;;0.50;;
19675;SDS011;39539;52.202;9.876;2022-09-01T16:43:22;2.45;;;0.50;;
19675;SDS011;39539;52.202;9.876;2022-09-01T16:59:37;0.50;;;0.32;;
19675;SDS011;39539;52.202;9.876;2022-09-01T17:07:58;0.90;;;0.32;;
19675;SDS011;39539;52.202;9.876;2022-09-01T17:14:18;1.08;;;0.40;;
19675;SDS011;39539;52.202;9.876;2022-09-01T17:16:53;0.65;;;0.52;;
19675;SDS011;39539;52.202;9.876;2022-09-01T17:19:30;1.80;;;0.50;;
19675;SDS011;39539;52.202;9.876;2022-09-01T17:22:07;0.50;;;0.38;;
19675;SDS011;39539;52.202;9.876;2022-09-01T17:27:13;2.00;;;0.50;;
19675;SDS011;39539;52.202;9.876;2022-09-01T17:29:44;0.47;;;0.30;;
19675;SDS011;39539;52.202;9.876;2022-09-01T17:32:32;0.30;;;0.30;;
19675;SDS011;39539;52.202;9.876;2022-09-01T17:49:15;1.52;;;0.30;;
19675;SDS011;39539;52.202;9.876;2022-09-01T18:05:52;0.75;;;0.65;;
19675;SDS011;39539;52.202;9.876;2022-09-01T18:08:38;0.82;;;0.30;;
19675;SDS011;39539;52.202;9.876;2022-09-01T18:13:51;1.52;;;0.50;;
19675;SDS011;39539;52.202;9.876;2022-09-01T18:16:29;2.35;;;0.52;;
19675;SDS011;39539;52.202;9.876;2022-09-01T18:19:08;2.60;;;0.52;;
19675;SDS011;39539;52.202;9.876;2022-09-01T18:22:00;0.82;;;0.43;;